createdAt,value
2023-01-05T00:09:55.249Z,74.95
2023-01-05T00:20:18.301Z,74.65
2023-01-05T00:30:24.370Z,74.31
2023-01-05T00:40:28.045Z,74.09
2023-01-05T00:50:31.847Z,73.88
2023-01-05T01:00:45.583Z,73.88
2023-01-05T01:10:51.413Z,73.91
2023-01-05T01:20:57.728Z,73.92
2023-01-05T01:31:02.215Z,74.00
2023-01-05T01:41:05.979Z,73.67
2023-01-05T01:51:18.590Z,73.84
2023-01-05T02:01:24.363Z,73.86
2023-01-05T02:11:44.470Z,74.09
2023-01-05T02:22:12.127Z,73.80
2023-01-05T02:32:35.114Z,73.65
2023-01-05T02:42:41.501Z,73.83
2023-01-05T02:52:48.251Z,73.97
2023-01-05T03:03:02.281Z,74.26
2023-01-05T03:13:29.523Z,74.11
2023-01-05T03:23:51.922Z,73.91
2023-01-05T03:34:29.165Z,73.62
2023-01-05T03:44:39.416Z,73.51
2023-01-05T03:54:46.175Z,73.36
2023-01-05T04:04:51.104Z,73.31
2023-01-05T04:14:55.092Z,73.25
2023-01-05T04:25:00.058Z,73.44
2023-01-05T04:35:11.035Z,73.23
2023-01-05T04:45:16.215Z,73.26
2023-01-05T04:55:20.634Z,73.29
2023-01-05T05:05:24.756Z,73.21
2023-01-05T05:15:30.429Z,73.47
2023-01-05T05:25:35.804Z,73.60
2023-01-05T05:35:39.799Z,73.25
2023-01-05T05:45:50.108Z,73.37
2023-01-05T05:55:54.410Z,73.50
2023-01-05T06:05:57.921Z,73.38
2023-01-05T06:16:03.083Z,73.26
2023-01-05T06:26:07.601Z,73.32
2023-01-05T06:36:11.148Z,73.49
2023-01-05T06:46:14.670Z,73.85
2023-01-05T06:56:19.323Z,73.97
2023-01-05T07:06:23.023Z,73.91
2023-01-05T07:16:26.494Z,73.79
2023-01-05T07:26:30.077Z,74.29
2023-01-05T07:36:34.221Z,74.20
2023-01-05T07:46:37.794Z,73.47
2023-01-05T07:56:41.348Z,72.34
2023-01-05T08:06:44.858Z,71.74
2023-01-05T08:16:49.983Z,71.23
2023-01-05T08:26:53.569Z,70.74
2023-01-05T08:36:57.164Z,70.41
2023-01-05T08:47:00.658Z,70.42
2023-01-05T08:57:04.261Z,70.31
2023-01-05T09:07:10.886Z,70.75
2023-01-05T09:17:14.393Z,70.40
2023-01-05T09:27:18.055Z,69.93
2023-01-05T09:37:21.566Z,69.81
2023-01-05T09:47:41.360Z,69.50
2023-01-05T09:58:05.549Z,69.11
2023-01-05T10:08:19.935Z,68.77
2023-01-05T10:18:29.780Z,68.85
2023-01-05T10:28:53.200Z,68.83
2023-01-05T10:39:18.159Z,69.34
2023-01-05T10:49:31.578Z,69.76
2023-01-05T10:59:35.278Z,69.88
2023-01-05T11:09:45.414Z,69.58
2023-01-05T11:19:55.089Z,69.38
2023-01-05T11:30:20.792Z,69.30
2023-01-05T11:40:29.809Z,69.30
2023-01-05T11:50:49.289Z,69.44
2023-01-05T12:01:01.890Z,69.51
2023-01-05T12:11:20.043Z,69.55
2023-01-05T12:21:26.204Z,69.59
2023-01-05T12:42:31.811Z,70.09
2023-01-05T12:52:41.722Z,70.37
2023-01-05T13:02:54.005Z,70.64
2023-01-05T13:13:01.595Z,70.38
2023-01-05T13:23:14.919Z,70.21
2023-01-05T13:33:58.191Z,69.94
2023-01-05T13:44:17.098Z,69.78
2023-01-05T13:54:54.703Z,70.10
2023-01-05T14:05:09.776Z,69.35
2023-01-05T14:15:29.108Z,69.51
2023-01-05T14:25:38.959Z,69.62
2023-01-05T14:35:44.616Z,70.03
2023-01-05T14:46:09.859Z,70.69
2023-01-05T14:56:15.916Z,71.08
2023-01-05T15:06:39.436Z,71.29
2023-01-05T15:17:17.072Z,71.33
2023-01-05T15:27:39.918Z,71.30
2023-01-05T15:37:44.480Z,71.35
2023-01-05T15:47:49.611Z,71.24
2023-01-05T15:57:57.612Z,71.35
2023-01-05T16:08:11.760Z,71.69
2023-01-05T16:18:23.715Z,71.92
2023-01-05T16:28:27.785Z,72.13
2023-01-05T16:38:31.610Z,72.27
2023-01-05T16:48:39.349Z,72.77
2023-01-05T16:58:44.828Z,74.19
2023-01-05T17:08:49.657Z,74.64
2023-01-05T17:18:54.546Z,74.67
2023-01-05T17:39:20.636Z,75.14
2023-01-05T17:59:34.907Z,75.22
2023-01-05T18:09:39.049Z,75.60
2023-01-05T18:19:43.838Z,75.61
2023-01-05T18:29:47.471Z,75.87
2023-01-05T18:39:51.370Z,76.51
2023-01-05T18:50:11.427Z,76.47
2023-01-05T19:00:20.648Z,76.35
2023-01-05T19:10:24.792Z,76.15
2023-01-05T19:20:30.428Z,76.06
2023-01-05T19:30:34.140Z,75.85
2023-01-05T19:40:38.110Z,75.76
2023-01-05T19:50:42.200Z,75.57
2023-01-05T20:00:46.417Z,75.49
2023-01-05T20:10:50.103Z,75.83
2023-01-05T20:20:53.922Z,75.73
2023-01-05T20:30:58.931Z,75.84
2023-01-05T20:41:13.157Z,75.84
2023-01-05T20:51:18.002Z,75.17
2023-01-05T21:01:22.926Z,74.95
2023-01-05T21:11:26.743Z,75.02
2023-01-05T21:21:31.156Z,75.22
2023-01-05T21:31:37.368Z,74.63
2023-01-05T21:42:00.798Z,73.75
2023-01-05T21:52:24.715Z,73.45
2023-01-05T22:02:28.361Z,73.45
2023-01-05T22:12:31.913Z,73.18
2023-01-05T22:22:38.910Z,73.65
2023-01-05T22:32:43.104Z,73.57
2023-01-05T22:42:47.024Z,73.54
2023-01-05T22:52:50.618Z,73.14
2023-01-05T23:02:55.875Z,72.41
2023-01-05T23:12:59.480Z,72.09
2023-01-05T23:23:03.240Z,71.46
2023-01-05T23:33:06.822Z,70.93
2023-01-05T23:43:16.490Z,71.15
2023-01-05T23:53:20.083Z,71.22
